createdAt,value
2023-04-03T00:00:15.097Z,12.53
2023-04-03T00:03:08.863Z,12.63
2023-04-03T00:05:42.480Z,12.20
2023-04-03T00:08:15.755Z,13.30
2023-04-03T00:10:49.160Z,13.10
2023-04-03T00:13:22.602Z,12.80
2023-04-03T00:15:56.441Z,13.17
2023-04-03T00:18:30.001Z,12.63
2023-04-03T00:21:03.537Z,13.83
2023-04-03T00:23:37.357Z,13.20
2023-04-03T00:26:10.384Z,13.23
2023-04-03T00:28:44.170Z,13.73
2023-04-03T00:31:19.033Z,13.20
2023-04-03T00:33:52.355Z,14.20
2023-04-03T00:36:25.673Z,15.17
2023-04-03T00:38:58.947Z,14.13
2023-04-03T00:41:33.036Z,15.13
2023-04-03T00:44:23.862Z,14.00
2023-04-03T00:46:57.407Z,13.17
2023-04-03T00:49:31.628Z,13.50
2023-04-03T00:52:05.502Z,14.23
2023-04-03T00:54:41.009Z,13.00
2023-04-03T00:57:15.046Z,13.40
2023-04-03T00:59:51.871Z,13.10
2023-04-03T01:02:25.788Z,13.17
2023-04-03T01:04:59.287Z,13.23
2023-04-03T01:07:35.129Z,12.93
2023-04-03T01:10:15.121Z,12.07
2023-04-03T01:12:50.838Z,12.63
2023-04-03T01:15:26.064Z,12.70
2023-04-03T01:18:01.906Z,13.30
2023-04-03T01:21:08.082Z,12.30
2023-04-03T01:23:53.822Z,11.63
2023-04-03T01:26:28.497Z,12.30
2023-04-03T01:29:03.912Z,12.33
2023-04-03T01:31:48.122Z,11.10
2023-04-03T01:34:22.553Z,11.33
2023-04-03T01:36:56.870Z,11.57
2023-04-03T01:39:30.308Z,11.20
2023-04-03T01:42:04.823Z,11.87
2023-04-03T01:44:41.566Z,11.67
2023-04-03T01:47:15.524Z,11.07
2023-04-03T01:49:48.756Z,11.77
2023-04-03T01:52:22.354Z,11.63
2023-04-03T01:54:55.572Z,12.83
2023-04-03T01:57:29.021Z,14.07
2023-04-03T02:00:02.510Z,14.83
2023-04-03T02:02:46.513Z,15.20
2023-04-03T02:05:21.587Z,15.70
2023-04-03T02:07:55.176Z,14.83
2023-04-03T02:10:28.820Z,15.50
2023-04-03T02:13:04.264Z,15.87
2023-04-03T02:15:39.992Z,15.23
2023-04-03T02:18:13.406Z,15.27
2023-04-03T02:20:47.335Z,15.70
2023-04-03T02:23:20.861Z,15.73
2023-04-03T02:25:54.080Z,15.20
2023-04-03T02:28:29.503Z,15.27
2023-04-03T02:31:03.581Z,15.60
2023-04-03T02:33:38.057Z,15.50
2023-04-03T02:36:13.804Z,14.40
2023-04-03T02:38:49.830Z,15.30
2023-04-03T02:41:23.527Z,14.27
2023-04-03T02:43:57.278Z,15.27
2023-04-03T02:46:30.484Z,14.87
2023-04-03T02:49:04.438Z,14.47
2023-04-03T02:51:37.931Z,15.47
2023-04-03T02:54:11.866Z,16.10
2023-04-03T02:56:46.633Z,15.93
2023-04-03T02:59:21.203Z,14.20
2023-04-03T03:01:54.993Z,14.83
2023-04-03T03:04:28.792Z,14.20
2023-04-03T03:07:03.848Z,14.00
2023-04-03T03:09:37.647Z,14.00
2023-04-03T03:12:11.818Z,13.87
2023-04-03T03:14:45.144Z,13.30
2023-04-03T03:17:17.510Z,13.35
2023-04-03T03:19:50.287Z,13.30
2023-04-03T03:22:23.068Z,14.90
2023-04-03T03:24:56.268Z,13.10
2023-04-03T03:27:29.038Z,16.80
2023-04-03T03:30:01.410Z,17.90
2023-04-03T03:32:35.477Z,16.53
2023-04-03T03:35:10.572Z,15.53
2023-04-03T03:37:44.153Z,15.97
2023-04-03T03:40:18.734Z,15.10
2023-04-03T03:42:52.275Z,15.10
2023-04-03T03:45:26.709Z,15.30
2023-04-03T03:48:00.420Z,15.73
2023-04-03T03:50:34.717Z,16.63
2023-04-03T03:53:08.308Z,16.30
2023-04-03T03:55:41.913Z,16.20
2023-04-03T03:58:15.729Z,15.13
2023-04-03T04:00:49.523Z,16.30
2023-04-03T04:03:23.603Z,17.00
2023-04-03T04:05:57.991Z,16.33
2023-04-03T04:08:31.365Z,15.13
2023-04-03T04:11:04.941Z,15.83
2023-04-03T04:13:38.642Z,14.70
2023-04-03T04:16:13.198Z,15.13
2023-04-03T04:18:46.874Z,15.60
2023-04-03T04:21:20.032Z,16.53
2023-04-03T04:23:53.963Z,16.53
2023-04-03T04:26:28.088Z,16.27
2023-04-03T04:29:02.084Z,17.63
2023-04-03T04:31:39.323Z,17.40
2023-04-03T04:34:14.068Z,15.60
2023-04-03T04:36:47.548Z,17.33
2023-04-03T04:39:20.938Z,17.00
2023-04-03T04:41:54.045Z,17.83
2023-04-03T04:44:27.882Z,19.03
2023-04-03T04:47:01.911Z,18.30
2023-04-03T04:49:35.690Z,19.70
2023-04-03T04:52:10.765Z,18.67
2023-04-03T04:54:47.649Z,20.43
2023-04-03T04:57:21.378Z,19.90
2023-04-03T04:59:55.061Z,20.83
2023-04-03T05:02:28.826Z,20.50
2023-04-03T05:05:05.748Z,21.33
2023-04-03T05:07:39.742Z,21.90
2023-04-03T05:10:14.330Z,21.63
2023-04-03T05:12:47.988Z,21.80
2023-04-03T05:15:22.383Z,22.73
2023-04-03T05:17:56.579Z,22.57
2023-04-03T05:20:29.944Z,22.53
2023-04-03T05:23:04.614Z,22.73
2023-04-03T05:25:41.534Z,23.30
2023-04-03T05:28:15.860Z,23.17
2023-04-03T05:30:55.609Z,22.00
2023-04-03T05:33:30.439Z,22.67
2023-04-03T05:36:09.136Z,21.07
2023-04-03T05:38:47.255Z,21.35
2023-04-03T05:41:22.115Z,18.53
2023-04-03T05:43:56.514Z,18.97
2023-04-03T05:46:31.126Z,18.70
2023-04-03T05:49:04.927Z,18.87
2023-04-03T05:51:39.428Z,18.07
2023-04-03T05:54:30.207Z,17.30
2023-04-03T05:57:11.176Z,16.70
2023-04-03T05:59:43.903Z,16.57
2023-04-03T06:02:18.309Z,15.25
2023-04-03T06:04:52.605Z,16.17
2023-04-03T06:07:29.424Z,15.78
2023-04-03T06:10:02.810Z,15.83
2023-04-03T06:12:35.996Z,14.63
2023-04-03T06:15:11.234Z,14.15
2023-04-03T06:17:45.489Z,12.75
2023-04-03T06:20:18.438Z,12.43
2023-04-03T06:22:52.037Z,12.43
2023-04-03T06:25:24.817Z,12.65
2023-04-03T06:27:57.861Z,12.25
2023-04-03T06:30:30.582Z,12.33
2023-04-03T06:33:03.590Z,11.30
2023-04-03T06:35:36.643Z,11.00
2023-04-03T06:38:10.786Z,10.78
2023-04-03T06:40:43.546Z,11.08
2023-04-03T06:43:16.129Z,9.13
2023-04-03T06:45:49.307Z,9.83
2023-04-03T06:48:22.120Z,9.75
2023-04-03T06:50:55.690Z,9.10
2023-04-03T06:53:28.266Z,8.98
2023-04-03T06:56:00.840Z,9.95
2023-04-03T06:58:33.453Z,9.05
2023-04-03T07:01:06.198Z,8.78
2023-04-03T07:03:39.062Z,9.58
2023-04-03T07:06:13.672Z,8.75
2023-04-03T07:08:46.588Z,8.23
2023-04-03T07:11:19.162Z,8.73
2023-04-03T07:13:51.738Z,9.18
2023-04-03T07:16:24.361Z,9.98
2023-04-03T07:18:57.910Z,8.68
2023-04-03T07:21:30.769Z,9.20
2023-04-03T07:24:03.435Z,8.48
2023-04-03T07:26:36.868Z,8.45
2023-04-03T07:29:10.477Z,8.38
2023-04-03T07:31:43.177Z,8.48
2023-04-03T07:34:15.831Z,9.28
2023-04-03T07:36:47.914Z,8.00
2023-04-03T07:39:20.771Z,8.83
2023-04-03T07:41:53.770Z,7.97
2023-04-03T07:44:27.768Z,8.50
2023-04-03T07:47:01.371Z,8.08
2023-04-03T07:49:35.990Z,8.03
2023-04-03T07:52:10.226Z,8.40
2023-04-03T07:54:43.605Z,7.53
2023-04-03T07:57:15.962Z,7.83
2023-04-03T07:59:48.544Z,8.50
2023-04-03T08:02:21.332Z,8.10
2023-04-03T08:04:53.837Z,8.50
2023-04-03T08:07:27.085Z,7.80
2023-04-03T08:09:59.868Z,8.53
2023-04-03T08:12:33.470Z,8.30
2023-04-03T08:15:06.277Z,8.98
2023-04-03T08:17:39.054Z,8.98
2023-04-03T08:20:13.069Z,8.18
2023-04-03T08:22:45.825Z,7.47
2023-04-03T08:25:19.026Z,8.63
2023-04-03T08:27:51.606Z,8.00
2023-04-03T08:30:24.039Z,8.05
2023-04-03T08:32:56.769Z,7.97
2023-04-03T08:35:29.207Z,8.38
2023-04-03T08:38:02.300Z,8.10
2023-04-03T08:40:34.872Z,7.75
2023-04-03T08:43:13.484Z,8.78
2023-04-03T08:45:48.250Z,8.33
2023-04-03T08:48:22.844Z,8.95
2023-04-03T08:50:57.731Z,9.00
2023-04-03T08:53:33.749Z,7.92
2023-04-03T08:56:07.694Z,7.92
2023-04-03T08:58:44.140Z,7.70
2023-04-03T09:01:20.255Z,7.50
2023-04-03T09:03:52.936Z,8.35
2023-04-03T09:06:30.345Z,7.47
2023-04-03T09:09:10.020Z,7.70
2023-04-03T09:11:47.381Z,7.37
2023-04-03T09:14:25.489Z,8.08
2023-04-03T09:16:59.220Z,7.67
2023-04-03T09:19:38.166Z,8.20
2023-04-03T09:22:16.043Z,7.37
2023-04-03T09:24:49.966Z,8.83
2023-04-03T09:27:22.584Z,8.40
2023-04-03T09:29:56.356Z,8.30
2023-04-03T09:32:31.168Z,8.55
2023-04-03T09:35:19.053Z,8.95
2023-04-03T09:37:55.511Z,8.73
2023-04-03T09:40:36.847Z,9.45
2023-04-03T09:43:29.130Z,9.73
2023-04-03T09:48:34.287Z,9.53
2023-04-03T09:51:07.683Z,8.80
2023-04-03T09:53:41.026Z,9.45
2023-04-03T09:56:23.561Z,8.13
2023-04-03T09:59:08.960Z,7.78
2023-04-03T10:01:43.993Z,8.30
2023-04-03T10:04:17.864Z,9.15
2023-04-03T10:06:52.596Z,7.87
2023-04-03T10:09:26.281Z,8.80
2023-04-03T10:12:05.845Z,8.28
2023-04-03T10:14:39.213Z,7.97
2023-04-03T10:17:20.797Z,7.15
2023-04-03T10:19:56.251Z,6.60
2023-04-03T10:22:35.122Z,6.90
2023-04-03T10:25:12.483Z,7.35
2023-04-03T10:27:49.048Z,7.25
2023-04-03T10:30:32.100Z,6.90
2023-04-03T10:33:11.624Z,6.95
2023-04-03T10:35:47.311Z,6.90
2023-04-03T10:38:23.119Z,6.78
2023-04-03T10:40:59.310Z,6.33
2023-04-03T10:43:36.597Z,6.40
2023-04-03T10:46:11.923Z,6.15
2023-04-03T10:48:48.043Z,7.40
2023-04-03T10:51:25.703Z,6.95
2023-04-03T10:54:00.706Z,7.33
2023-04-03T10:56:38.470Z,6.92
2023-04-03T10:59:25.563Z,7.25
2023-04-03T11:01:59.031Z,7.10
2023-04-03T11:04:34.338Z,8.03
2023-04-03T11:07:09.710Z,6.67
2023-04-03T11:09:43.207Z,7.28
2023-04-03T11:12:17.775Z,7.50
2023-04-03T11:14:51.208Z,7.05
2023-04-03T11:17:27.403Z,7.42
2023-04-03T11:20:03.726Z,7.22
2023-04-03T11:22:38.973Z,6.97
2023-04-03T11:25:21.385Z,7.90
2023-04-03T11:27:57.256Z,7.50
2023-04-03T11:30:31.447Z,6.58
2023-04-03T11:33:12.745Z,7.35
2023-04-03T11:35:48.694Z,7.95
2023-04-03T11:38:24.129Z,8.10
2023-04-03T11:40:57.807Z,8.43
2023-04-03T11:43:31.112Z,7.50
2023-04-03T11:46:04.731Z,7.05
2023-04-03T11:48:51.233Z,6.92
2023-04-03T11:51:53.282Z,7.92
2023-04-03T11:57:00.907Z,7.00
2023-04-03T11:59:39.685Z,7.45
2023-04-03T12:02:25.768Z,7.42
2023-04-03T12:05:11.593Z,7.15
2023-04-03T12:07:44.981Z,7.60
2023-04-03T12:10:31.708Z,6.50
2023-04-03T12:13:16.440Z,6.83
2023-04-03T12:15:53.062Z,7.08
2023-04-03T12:18:54.512Z,7.33
2023-04-03T12:21:47.494Z,8.15
2023-04-03T12:24:28.006Z,6.53
2023-04-03T12:27:08.671Z,7.60
2023-04-03T12:29:44.097Z,7.30
2023-04-03T12:32:23.744Z,7.50
2023-04-03T12:35:06.518Z,8.20
2023-04-03T12:37:43.213Z,8.15
2023-04-03T12:40:22.679Z,7.92
2023-04-03T12:43:09.580Z,8.83
2023-04-03T12:45:45.638Z,8.33
2023-04-03T12:48:19.243Z,7.95
2023-04-03T12:50:52.219Z,8.33
2023-04-03T12:53:27.371Z,7.92
2023-04-03T12:56:00.330Z,8.33
2023-04-03T12:58:33.022Z,9.35
2023-04-03T13:01:06.824Z,9.80
2023-04-03T13:03:40.822Z,8.53
2023-04-03T13:06:18.685Z,8.90
2023-04-03T13:08:55.253Z,9.18
2023-04-03T13:11:28.669Z,9.55
2023-04-03T13:14:03.261Z,9.25
2023-04-03T13:16:36.305Z,9.43
2023-04-03T13:19:09.198Z,9.28
2023-04-03T13:21:41.769Z,8.75
2023-04-03T13:24:15.812Z,8.43
2023-04-03T13:26:48.766Z,9.45
2023-04-03T13:29:30.909Z,8.40
2023-04-03T13:32:05.717Z,7.67
2023-04-03T13:34:40.418Z,7.75
2023-04-03T13:37:22.014Z,7.42
2023-04-03T13:42:27.675Z,7.92
2023-04-03T13:45:13.657Z,6.72
2023-04-03T13:47:46.876Z,7.33
2023-04-03T13:50:20.928Z,7.33
2023-04-03T13:52:55.496Z,6.92
2023-04-03T13:55:30.116Z,8.10
2023-04-03T13:58:03.752Z,8.13
2023-04-03T14:00:39.659Z,7.78
2023-04-03T14:03:21.271Z,8.23
2023-04-03T14:05:53.926Z,8.18
2023-04-03T14:08:39.584Z,7.40
2023-04-03T14:11:18.942Z,7.20
2023-04-03T14:13:52.946Z,7.78
2023-04-03T14:16:26.987Z,6.40
2023-04-03T14:18:59.554Z,7.05
2023-04-03T14:21:31.906Z,6.70
2023-04-03T14:24:04.480Z,6.83
2023-04-03T14:26:37.056Z,7.08
2023-04-03T14:29:09.635Z,7.55
2023-04-03T14:31:42.644Z,6.87
2023-04-03T14:34:15.832Z,6.60
2023-04-03T14:36:49.067Z,7.65
2023-04-03T14:39:22.216Z,8.10
2023-04-03T14:41:54.763Z,8.95
2023-04-03T14:44:27.541Z,8.88
2023-04-03T14:46:59.916Z,10.23
2023-04-03T14:49:33.103Z,9.93
2023-04-03T14:52:05.683Z,9.93
2023-04-03T14:54:38.462Z,10.53
2023-04-03T14:57:14.339Z,10.68
2023-04-03T14:59:47.096Z,11.10
2023-04-03T15:02:27.826Z,10.90
2023-04-03T15:05:01.082Z,11.15
2023-04-03T15:07:36.977Z,10.48
2023-04-03T15:10:17.891Z,10.48
2023-04-03T15:12:51.069Z,10.15
2023-04-03T15:15:24.261Z,9.78
2023-04-03T15:17:59.410Z,10.75
2023-04-03T15:20:34.534Z,10.53
2023-04-03T15:23:07.315Z,9.85
2023-04-03T15:25:40.915Z,10.20
2023-04-03T15:28:15.333Z,11.12
2023-04-03T15:30:47.910Z,10.40
2023-04-03T15:33:20.733Z,10.35
2023-04-03T15:35:59.156Z,11.15
2023-04-03T15:38:40.794Z,11.85
2023-04-03T15:41:13.571Z,12.13
2023-04-03T15:43:46.155Z,11.38
2023-04-03T15:46:19.171Z,11.90
2023-04-03T15:48:52.328Z,10.20
2023-04-03T15:51:25.119Z,10.88
2023-04-03T15:53:57.473Z,10.88
2023-04-03T15:56:30.052Z,10.43
2023-04-03T15:59:03.057Z,9.85
2023-04-03T16:01:36.287Z,10.25
2023-04-03T16:04:10.529Z,11.88
2023-04-03T16:06:44.051Z,10.30
2023-04-03T16:09:16.619Z,11.30
2023-04-03T16:11:49.409Z,11.28
2023-04-03T16:14:21.967Z,11.05
2023-04-03T16:16:54.543Z,10.82
2023-04-03T16:19:27.116Z,10.78
2023-04-03T16:22:00.530Z,11.95
2023-04-03T16:24:33.371Z,11.20
2023-04-03T16:27:05.870Z,10.98
2023-04-03T16:29:38.445Z,10.68
2023-04-03T16:32:11.633Z,11.22
2023-04-03T16:34:45.002Z,10.45
2023-04-03T16:37:18.423Z,11.43
2023-04-03T16:39:51.002Z,11.83
2023-04-03T16:42:23.983Z,10.65
2023-04-03T16:44:56.767Z,11.57
2023-04-03T16:47:29.550Z,11.00
2023-04-03T16:50:02.289Z,11.45
2023-04-03T16:52:35.522Z,11.15
2023-04-03T16:55:10.561Z,12.13
2023-04-03T16:57:42.681Z,12.30
2023-04-03T17:00:17.325Z,11.65
2023-04-03T17:02:50.551Z,12.07
2023-04-03T17:05:23.147Z,11.90
2023-04-03T17:07:55.731Z,12.28
2023-04-03T17:10:28.255Z,12.47
2023-04-03T17:13:00.831Z,12.35
2023-04-03T17:15:33.610Z,12.88
2023-04-03T17:18:06.440Z,12.55
2023-04-03T17:20:39.582Z,12.82
2023-04-03T17:23:12.366Z,12.55
2023-04-03T17:25:45.140Z,13.15
2023-04-03T17:28:17.943Z,12.47
2023-04-03T17:30:50.498Z,11.97
2023-04-03T17:33:23.072Z,12.37
2023-04-03T17:35:57.962Z,13.32
2023-04-03T17:38:30.478Z,12.40
2023-04-03T17:41:04.079Z,12.13
2023-04-03T17:43:37.074Z,12.15
2023-04-03T17:46:10.522Z,11.78
2023-04-03T17:48:43.237Z,12.43
2023-04-03T17:51:16.873Z,12.50
2023-04-03T17:53:50.038Z,13.13
2023-04-03T17:56:24.446Z,13.05
2023-04-03T17:58:58.669Z,12.98
2023-04-03T18:01:31.978Z,14.15
2023-04-03T18:04:05.904Z,13.83
2023-04-03T18:06:41.465Z,14.05
2023-04-03T18:09:16.348Z,15.08
2023-04-03T18:11:49.761Z,17.50
2023-04-03T18:14:24.784Z,17.27
2023-04-03T18:16:59.205Z,17.98
2023-04-03T18:19:32.179Z,19.20
2023-04-03T18:22:06.465Z,19.05
2023-04-03T18:24:39.166Z,18.95
2023-04-03T18:27:14.223Z,20.45
2023-04-03T18:29:48.007Z,19.87
2023-04-03T18:32:21.606Z,19.98
2023-04-03T18:34:54.188Z,18.70
2023-04-03T18:37:26.752Z,18.75
2023-04-03T18:39:59.736Z,19.60
2023-04-03T18:42:32.425Z,17.42
2023-04-03T18:45:08.265Z,17.23
2023-04-03T18:47:40.959Z,16.37
2023-04-03T18:50:14.867Z,14.75
2023-04-03T18:52:50.850Z,12.95
2023-04-03T18:55:23.596Z,13.22
2023-04-03T18:57:55.828Z,11.90
2023-04-03T19:02:59.554Z,11.05
2023-04-03T19:05:32.867Z,11.18
2023-04-03T19:08:05.861Z,11.12
2023-04-03T19:10:37.821Z,10.45
2023-04-03T19:13:10.216Z,9.53
2023-04-03T19:15:43.175Z,9.53
2023-04-03T19:18:15.640Z,8.60
2023-04-03T19:20:48.592Z,8.35
2023-04-03T19:23:21.104Z,7.45
2023-04-03T19:26:01.027Z,6.05
2023-04-03T19:28:33.420Z,6.17
2023-04-03T19:31:12.344Z,6.10
2023-04-03T19:33:45.355Z,5.15
2023-04-03T19:36:19.391Z,5.42
2023-04-03T19:38:52.528Z,5.08
2023-04-03T19:41:27.493Z,5.25
2023-04-03T19:44:00.153Z,5.70
2023-04-03T19:46:32.759Z,5.95
2023-04-03T19:49:05.295Z,5.03
2023-04-03T19:51:38.068Z,4.92
2023-04-03T19:54:10.437Z,5.10
2023-04-03T19:56:43.217Z,5.10
2023-04-03T19:59:16.719Z,5.00
2023-04-03T20:01:49.422Z,4.58
2023-04-03T20:04:21.891Z,5.53
2023-04-03T20:06:55.370Z,5.83
2023-04-03T20:09:28.140Z,5.93
2023-04-03T20:12:02.797Z,5.92
2023-04-03T20:14:35.956Z,6.60
2023-04-03T20:17:10.377Z,7.22
2023-04-03T20:19:43.163Z,6.42
2023-04-03T20:22:15.934Z,6.47
2023-04-03T20:24:48.519Z,7.20
2023-04-03T20:27:21.292Z,6.42
2023-04-03T20:29:53.663Z,7.62
2023-04-03T20:32:26.036Z,7.08
2023-04-03T20:35:04.225Z,6.53
2023-04-03T20:37:37.327Z,6.42
2023-04-03T20:40:11.266Z,6.60
2023-04-03T20:42:43.757Z,6.75
2023-04-03T20:45:16.489Z,7.50
2023-04-03T20:47:49.719Z,6.55
2023-04-03T20:50:22.926Z,6.95
2023-04-03T20:52:56.476Z,7.25
2023-04-03T20:55:29.460Z,6.30
2023-04-03T21:03:07.628Z,6.20
2023-04-03T21:05:40.571Z,6.42
2023-04-03T21:08:30.238Z,6.53
2023-04-03T21:11:23.813Z,5.87
2023-04-03T21:14:13.909Z,5.80
2023-04-03T21:16:44.999Z,5.47
2023-04-03T21:19:20.997Z,5.93
2023-04-03T21:21:55.247Z,6.00
2023-04-03T21:24:28.236Z,5.50
2023-04-03T21:27:01.878Z,5.25
2023-04-03T21:29:37.040Z,5.47
2023-04-03T21:32:11.023Z,4.90
2023-04-03T21:34:44.937Z,5.30
2023-04-03T21:37:19.264Z,5.50
2023-04-03T21:39:52.753Z,5.70
2023-04-03T21:42:26.060Z,5.63
2023-04-03T21:45:00.318Z,5.40
2023-04-03T21:47:35.811Z,5.30
2023-04-03T21:50:11.985Z,5.23
2023-04-03T21:52:45.581Z,4.90
2023-04-03T21:55:20.008Z,4.47
2023-04-03T21:57:55.637Z,4.43
2023-04-03T22:00:29.517Z,4.50
2023-04-03T22:03:09.918Z,4.13
2023-04-03T22:05:44.482Z,4.40
2023-04-03T22:08:18.231Z,4.10
2023-04-03T22:10:53.039Z,4.20
2023-04-03T22:13:26.661Z,4.40
2023-04-03T22:16:01.970Z,4.47
2023-04-03T22:18:36.313Z,4.00
2023-04-03T22:21:10.329Z,3.97
2023-04-03T22:23:43.713Z,4.70
2023-04-03T22:26:17.797Z,3.90
2023-04-03T22:28:51.590Z,4.27
2023-04-03T22:31:25.196Z,4.20
2023-04-03T22:33:58.936Z,4.30
2023-04-03T22:36:32.532Z,4.10
2023-04-03T22:39:07.156Z,4.30
2023-04-03T22:41:40.548Z,4.40
2023-04-03T22:44:14.412Z,4.30
2023-04-03T22:46:47.964Z,4.17
2023-04-03T22:49:21.864Z,4.60
2023-04-03T22:51:54.935Z,4.17
2023-04-03T22:54:28.544Z,4.20
2023-04-03T22:57:01.984Z,4.60
2023-04-03T22:59:35.208Z,4.03
2023-04-03T23:02:09.355Z,4.60
2023-04-03T23:04:42.698Z,4.63
2023-04-03T23:07:17.516Z,4.57
2023-04-03T23:09:51.002Z,4.00
2023-04-03T23:12:24.354Z,4.70
2023-04-03T23:14:57.589Z,4.97
2023-04-03T23:17:30.871Z,4.60
2023-04-03T23:20:04.329Z,4.53
2023-04-03T23:22:37.901Z,4.33
2023-04-03T23:25:12.027Z,3.97
2023-04-03T23:27:51.293Z,4.50
2023-04-03T23:30:24.467Z,4.80
2023-04-03T23:32:57.898Z,4.40
2023-04-03T23:35:31.895Z,4.57
2023-04-03T23:38:05.465Z,5.10
2023-04-03T23:40:39.216Z,4.63
2023-04-03T23:43:12.805Z,4.87
2023-04-03T23:45:47.906Z,4.87
2023-04-03T23:48:21.312Z,4.53
2023-04-03T23:50:55.924Z,4.50
2023-04-03T23:53:29.375Z,4.20
2023-04-03T23:56:02.920Z,4.33
2023-04-03T23:58:36.718Z,4.20
